createdAt,value
2019-02-15T00:00:51.206Z,66.47
2019-02-15T00:01:51.193Z,66.58
2019-02-15T00:02:51.214Z,66.58
2019-02-15T00:03:51.173Z,66.89
2019-02-15T00:04:51.158Z,67.10
2019-02-15T00:05:51.152Z,66.99
2019-02-15T00:06:51.138Z,66.99
2019-02-15T00:08:50.125Z,66.89
2019-02-15T00:09:51.109Z,67.10
2019-02-15T00:10:51.098Z,66.99
2019-02-15T00:11:51.088Z,67.41
2019-02-15T00:12:51.075Z,66.89
2019-02-15T00:13:51.089Z,66.89
2019-02-15T00:14:51.932Z,67.10
2019-02-15T00:15:51.036Z,66.78
2019-02-15T00:16:51.034Z,66.89
2019-02-15T00:17:51.025Z,66.38
2019-02-15T00:18:51.042Z,66.38
2019-02-15T00:19:51.013Z,66.78
2019-02-15T00:20:50.993Z,66.78
2019-02-15T00:22:49.961Z,66.38
2019-02-15T00:23:50.964Z,66.27
2019-02-15T00:25:49.933Z,66.17
2019-02-15T00:26:50.918Z,66.17
2019-02-15T00:27:50.901Z,66.47
2019-02-15T00:28:50.904Z,66.27
2019-02-15T00:29:50.922Z,66.27
2019-02-15T00:30:50.874Z,66.27
2019-02-15T00:31:50.864Z,66.68
2019-02-15T00:32:50.855Z,66.06
2019-02-15T00:33:50.842Z,67.30
2019-02-15T00:34:50.904Z,67.20
2019-02-15T00:35:50.818Z,66.78
2019-02-15T00:36:50.814Z,66.58
2019-02-15T00:37:50.810Z,66.38
2019-02-15T00:38:50.789Z,66.38
2019-02-15T00:39:50.790Z,66.27
2019-02-15T00:40:50.799Z,66.27
2019-02-15T00:41:50.756Z,66.47
2019-02-15T00:42:50.744Z,67.13
2019-02-15T00:43:50.734Z,66.78
2019-02-15T00:44:50.723Z,66.78
2019-02-15T00:45:50.720Z,66.99
2019-02-15T00:46:50.709Z,66.72
2019-02-15T00:47:50.690Z,67.13
2019-02-15T00:48:50.688Z,67.44
2019-02-15T00:49:50.676Z,67.55
2019-02-15T00:50:50.659Z,67.24
2019-02-15T00:51:50.658Z,67.34
2019-02-15T00:52:50.638Z,67.55
2019-02-15T00:53:50.627Z,66.51
2019-02-15T00:55:49.613Z,67.55
2019-02-15T00:56:50.596Z,67.55
2019-02-15T00:57:50.588Z,67.96
2019-02-15T00:58:50.577Z,67.44
2019-02-15T00:59:50.562Z,67.13
2019-02-15T01:00:50.559Z,66.93
2019-02-15T01:01:50.538Z,66.96
2019-02-15T01:02:50.534Z,66.85
2019-02-15T01:03:50.524Z,67.27
2019-02-15T01:04:50.514Z,67.44
2019-02-15T01:05:50.506Z,66.96
2019-02-15T01:06:50.492Z,66.96
2019-02-15T01:07:50.479Z,67.16
2019-02-15T01:08:50.464Z,67.47
2019-02-15T01:09:50.478Z,66.85
2019-02-15T01:10:50.437Z,67.27
2019-02-15T01:11:50.438Z,66.78
2019-02-15T01:12:50.413Z,66.85
2019-02-15T01:13:50.414Z,67.47
2019-02-15T01:14:52.912Z,67.68
2019-02-15T01:15:50.384Z,68.13
2019-02-15T01:16:50.383Z,67.16
2019-02-15T01:17:50.368Z,67.19
2019-02-15T01:18:50.356Z,66.85
2019-02-15T01:19:50.376Z,67.30
2019-02-15T01:20:50.332Z,66.88
2019-02-15T01:21:50.328Z,67.09
2019-02-15T01:22:50.324Z,66.96
2019-02-15T01:23:50.302Z,66.96
2019-02-15T01:24:50.289Z,67.47
2019-02-15T01:25:52.906Z,67.47
2019-02-15T01:26:50.266Z,66.44
2019-02-15T01:27:50.260Z,67.61
2019-02-15T01:28:50.246Z,68.02
2019-02-15T01:29:50.232Z,66.88
2019-02-15T01:30:50.228Z,67.64
2019-02-15T01:31:50.213Z,68.47
2019-02-15T01:32:50.906Z,68.57
2019-02-15T01:33:50.200Z,68.88
2019-02-15T01:34:50.183Z,68.19
2019-02-15T01:35:50.176Z,68.91
2019-02-15T01:36:50.156Z,68.37
2019-02-15T01:37:50.144Z,68.47
2019-02-15T01:38:50.146Z,68.37
2019-02-15T01:39:50.127Z,68.26
2019-02-15T01:40:50.122Z,68.29
2019-02-15T01:41:49.114Z,68.08
2019-02-15T01:42:50.094Z,67.85
2019-02-15T01:43:50.119Z,68.29
2019-02-15T01:44:50.074Z,68.26
2019-02-15T01:45:50.062Z,67.98
2019-02-15T01:46:49.050Z,68.26
2019-02-15T01:47:50.034Z,68.37
2019-02-15T01:48:50.063Z,67.54
2019-02-15T01:49:50.030Z,67.54
2019-02-15T01:50:50.006Z,67.67
2019-02-15T01:51:49.997Z,67.67
2019-02-15T01:52:49.996Z,67.64
2019-02-15T01:53:49.977Z,67.95
2019-02-15T01:54:49.964Z,67.74
2019-02-15T01:55:49.959Z,67.67
2019-02-15T01:56:49.940Z,67.77
2019-02-15T01:57:49.988Z,67.57
2019-02-15T01:58:49.947Z,68.08
2019-02-15T01:59:49.904Z,67.57
2019-02-15T02:00:49.892Z,67.67
2019-02-15T02:01:49.886Z,67.77
2019-02-15T02:02:49.906Z,67.57
2019-02-15T02:03:49.864Z,68.40
2019-02-15T02:04:49.857Z,67.46
2019-02-15T02:05:49.838Z,67.67
2019-02-15T02:06:49.829Z,67.43
2019-02-15T02:07:49.816Z,67.57
2019-02-15T02:08:49.811Z,67.77
2019-02-15T02:09:49.834Z,67.88
2019-02-15T02:10:49.780Z,67.57
2019-02-15T02:11:50.395Z,67.57
2019-02-15T02:12:49.766Z,67.46
2019-02-15T02:13:50.124Z,67.88
2019-02-15T02:14:49.773Z,68.29
2019-02-15T02:15:49.735Z,68.29
2019-02-15T02:16:49.724Z,68.40
2019-02-15T02:17:49.756Z,67.98
2019-02-15T02:18:49.720Z,67.77
2019-02-15T02:19:49.695Z,68.08
2019-02-15T02:20:49.677Z,68.08
2019-02-15T02:21:49.674Z,68.19
2019-02-15T02:22:49.665Z,68.19
2019-02-15T02:23:49.658Z,68.50
2019-02-15T02:24:50.381Z,68.40
2019-02-15T02:25:49.632Z,68.19
2019-02-15T02:26:49.620Z,68.08
2019-02-15T02:27:49.602Z,68.19
2019-02-15T02:28:49.599Z,68.08
2019-02-15T02:29:49.615Z,68.29
2019-02-15T02:30:49.573Z,67.98
2019-02-15T02:31:49.567Z,68.19
2019-02-15T02:32:49.543Z,68.29
2019-02-15T02:33:49.575Z,68.40
2019-02-15T02:34:49.520Z,68.60
2019-02-15T02:35:49.520Z,68.29
2019-02-15T02:36:49.499Z,68.29
2019-02-15T02:37:49.493Z,68.19
2019-02-15T02:38:52.385Z,68.50
2019-02-15T02:39:49.491Z,68.29
2019-02-15T02:40:50.387Z,68.08
2019-02-15T02:41:49.445Z,68.08
2019-02-15T02:42:49.433Z,68.19
2019-02-15T02:43:59.225Z,68.29
2019-02-15T02:44:49.416Z,68.22
2019-02-15T02:45:49.401Z,68.22
2019-02-15T02:46:49.405Z,68.71
2019-02-15T02:47:49.382Z,68.53
2019-02-15T02:48:49.371Z,68.43
2019-02-15T02:49:49.361Z,68.29
2019-02-15T02:50:49.350Z,68.29
2019-02-15T02:51:49.343Z,68.53
2019-02-15T02:52:49.323Z,68.50
2019-02-15T02:53:49.323Z,69.02
2019-02-15T02:54:49.305Z,68.60
2019-02-15T02:55:49.296Z,68.53
2019-02-15T02:56:49.289Z,69.05
2019-02-15T02:57:49.267Z,68.50
2019-02-15T02:58:49.265Z,68.60
2019-02-15T02:59:49.326Z,68.40
2019-02-15T03:00:49.259Z,68.74
2019-02-15T03:01:49.229Z,68.91
2019-02-15T03:02:49.332Z,68.43
2019-02-15T03:03:48.214Z,68.71
2019-02-15T03:04:49.191Z,68.71
2019-02-15T03:05:49.213Z,68.60
2019-02-15T03:06:49.181Z,68.50
2019-02-15T03:07:49.163Z,68.95
2019-02-15T03:08:49.146Z,68.84
2019-02-15T03:09:49.142Z,68.32
2019-02-15T03:10:49.129Z,68.29
2019-02-15T03:11:49.154Z,68.08
2019-02-15T03:12:49.107Z,68.12
2019-02-15T03:13:49.094Z,67.98
2019-02-15T03:14:49.082Z,68.53
2019-02-15T03:15:49.099Z,68.74
2019-02-15T03:16:49.066Z,68.95
2019-02-15T03:17:49.058Z,69.05
2019-02-15T03:18:49.058Z,68.74
2019-02-15T03:19:49.870Z,68.95
2019-02-15T03:20:49.095Z,68.95
2019-02-15T03:21:49.006Z,68.77
2019-02-15T03:22:49.000Z,68.74
2019-02-15T03:23:48.990Z,68.88
2019-02-15T03:24:48.984Z,68.53
2019-02-15T03:25:48.970Z,69.15
2019-02-15T03:26:48.947Z,69.40
2019-02-15T03:27:48.965Z,69.40
2019-02-15T03:28:51.872Z,69.47
2019-02-15T03:29:48.918Z,69.29
2019-02-15T03:30:48.973Z,69.29
2019-02-15T03:31:48.909Z,69.60
2019-02-15T03:32:48.881Z,69.29
2019-02-15T03:33:48.873Z,69.71
2019-02-15T03:34:48.864Z,69.81
2019-02-15T03:35:48.862Z,69.71
2019-02-15T03:36:48.881Z,69.40
2019-02-15T03:37:48.831Z,69.32
2019-02-15T03:38:48.821Z,69.12
2019-02-15T03:39:48.816Z,69.95
2019-02-15T03:40:48.800Z,70.36
2019-02-15T03:41:48.811Z,70.47
2019-02-15T03:42:48.786Z,70.92
2019-02-15T03:43:48.765Z,71.02
2019-02-15T03:44:48.756Z,71.33
2019-02-15T03:45:48.748Z,71.12
2019-02-15T03:46:48.743Z,71.02
2019-02-15T03:47:48.726Z,71.12
2019-02-15T03:48:48.717Z,71.33
2019-02-15T03:49:48.699Z,71.02
2019-02-15T03:50:48.694Z,70.36
2019-02-15T03:51:48.687Z,70.26
2019-02-15T03:52:48.667Z,70.15
2019-02-15T03:53:49.354Z,69.43
2019-02-15T03:54:48.643Z,69.64
2019-02-15T03:55:48.636Z,69.74
2019-02-15T03:56:48.647Z,69.32
2019-02-15T03:57:48.628Z,69.29
2019-02-15T03:58:48.605Z,69.50
2019-02-15T03:59:48.591Z,69.40
2019-02-15T04:00:48.584Z,69.50
2019-02-15T04:01:48.617Z,69.32
2019-02-15T04:02:48.557Z,69.40
2019-02-15T04:03:48.552Z,69.53
2019-02-15T04:04:48.543Z,69.74
2019-02-15T04:05:48.529Z,69.43
2019-02-15T04:06:48.515Z,70.15
2019-02-15T04:07:48.544Z,69.87
2019-02-15T04:08:48.506Z,70.71
2019-02-15T04:09:48.484Z,70.81
2019-02-15T04:10:48.471Z,70.61
2019-02-15T04:11:48.457Z,70.19
2019-02-15T04:12:48.447Z,70.29
2019-02-15T04:13:48.464Z,70.40
2019-02-15T04:14:48.427Z,70.81
2019-02-15T04:15:48.417Z,70.50
2019-02-15T04:16:48.419Z,71.05
2019-02-15T04:17:48.406Z,70.61
2019-02-15T04:18:48.397Z,70.84
2019-02-15T04:19:48.371Z,70.92
2019-02-15T04:20:48.364Z,70.92
2019-02-15T04:21:48.361Z,71.02
2019-02-15T04:22:48.345Z,70.81
2019-02-15T04:23:48.334Z,70.50
2019-02-15T04:24:48.321Z,70.81
2019-02-15T04:25:48.309Z,71.02
2019-02-15T04:26:48.367Z,70.32
2019-02-15T04:27:48.327Z,70.53
2019-02-15T04:28:48.289Z,70.40
2019-02-15T04:29:48.269Z,70.09
2019-02-15T04:31:47.845Z,69.87
2019-02-15T04:32:48.261Z,70.81
2019-02-15T04:33:48.254Z,69.56
2019-02-15T04:34:48.203Z,69.56
2019-02-15T04:35:48.203Z,69.46
2019-02-15T04:36:50.847Z,69.15
2019-02-15T04:37:48.177Z,69.64
2019-02-15T04:38:48.165Z,69.95
2019-02-15T04:39:48.167Z,69.84
2019-02-15T04:40:48.145Z,69.01
2019-02-15T04:41:48.142Z,69.77
2019-02-15T04:42:48.839Z,70.05
2019-02-15T04:43:48.109Z,69.43
2019-02-15T04:44:50.841Z,69.43
2019-02-15T04:45:48.097Z,69.22
2019-02-15T04:46:50.012Z,69.74
2019-02-15T04:47:47.071Z,69.74
2019-02-15T04:48:48.062Z,69.22
2019-02-15T04:49:48.059Z,69.53
2019-02-15T04:50:48.041Z,69.64
2019-02-15T04:51:48.023Z,69.32
2019-02-15T04:52:48.057Z,69.22
2019-02-15T04:53:48.008Z,69.22
2019-02-15T04:54:47.999Z,69.43
2019-02-15T04:55:47.991Z,69.35
2019-02-15T04:56:47.975Z,69.53
2019-02-15T04:57:47.983Z,69.56
2019-02-15T04:58:47.957Z,69.12
2019-02-15T04:59:47.973Z,69.01
2019-02-15T05:00:48.831Z,69.25
2019-02-15T05:01:47.920Z,69.25
2019-02-15T05:02:47.917Z,69.25
2019-02-15T05:03:47.908Z,69.67
2019-02-15T05:04:47.942Z,69.98
2019-02-15T05:05:47.880Z,69.87
2019-02-15T05:06:47.919Z,69.91
2019-02-15T05:07:47.859Z,70.95
2019-02-15T05:08:47.855Z,70.32
2019-02-15T05:09:47.833Z,70.64
2019-02-15T05:10:47.885Z,70.64
2019-02-15T05:11:47.812Z,71.05
2019-02-15T05:12:47.841Z,71.61
2019-02-15T05:13:47.796Z,71.50
2019-02-15T05:14:53.142Z,71.71
2019-02-15T05:15:47.768Z,71.40
2019-02-15T05:16:47.758Z,71.47
2019-02-15T05:17:47.780Z,71.47
2019-02-15T05:18:48.331Z,71.47
2019-02-15T05:19:47.735Z,71.47
2019-02-15T05:20:47.714Z,71.47
2019-02-15T05:21:47.704Z,71.16
2019-02-15T05:22:47.707Z,71.05
2019-02-15T05:23:47.692Z,70.95
2019-02-15T05:25:46.664Z,70.84
2019-02-15T05:26:47.653Z,71.02
2019-02-15T05:27:47.641Z,71.05
2019-02-15T05:28:47.639Z,70.84
2019-02-15T05:29:47.633Z,71.16
2019-02-15T05:30:47.618Z,70.81
2019-02-15T05:31:47.606Z,71.05
2019-02-15T05:32:47.614Z,70.53
2019-02-15T05:33:47.574Z,71.05
2019-02-15T05:34:47.573Z,71.05
2019-02-15T05:36:46.544Z,70.29
2019-02-15T05:37:47.552Z,70.40
2019-02-15T05:38:47.539Z,70.74
2019-02-15T05:39:47.516Z,70.43
2019-02-15T05:40:47.500Z,71.05
2019-02-15T05:41:48.321Z,71.05
2019-02-15T05:42:48.316Z,70.95
2019-02-15T05:43:47.548Z,70.84
2019-02-15T05:44:47.462Z,71.05
2019-02-15T05:46:46.474Z,71.26
2019-02-15T05:47:47.422Z,70.74
2019-02-15T05:48:47.414Z,71.05
2019-02-15T05:49:47.410Z,71.05
2019-02-15T05:50:47.426Z,71.05
2019-02-15T05:51:47.669Z,70.53
2019-02-15T05:52:47.372Z,70.53
2019-02-15T05:53:47.361Z,70.84
2019-02-15T05:54:47.346Z,70.64
2019-02-15T05:55:47.363Z,70.74
2019-02-15T05:56:47.372Z,70.53
2019-02-15T05:57:47.326Z,70.32
2019-02-15T05:58:47.314Z,70.74
2019-02-15T05:59:47.304Z,70.95
2019-02-15T06:00:47.300Z,70.53
2019-02-15T06:01:47.287Z,70.32
2019-02-15T06:02:47.305Z,70.32
2019-02-15T06:03:47.351Z,70.53
2019-02-15T06:04:47.260Z,71.09
2019-02-15T06:05:47.230Z,71.26
2019-02-15T06:06:47.246Z,71.19
2019-02-15T06:07:47.262Z,70.98
2019-02-15T06:08:47.219Z,70.84
2019-02-15T06:09:47.190Z,70.95
2019-02-15T06:10:47.812Z,70.53
2019-02-15T06:11:47.259Z,70.95
2019-02-15T06:12:47.159Z,70.32
2019-02-15T06:13:47.197Z,70.32
2019-02-15T06:14:47.354Z,70.64
2019-02-15T06:15:47.124Z,70.43
2019-02-15T06:16:47.142Z,70.32
2019-02-15T06:17:47.098Z,70.32
2019-02-15T06:18:47.099Z,70.53
2019-02-15T06:19:47.084Z,70.74
2019-02-15T06:20:47.095Z,70.64
2019-02-15T06:21:47.087Z,69.91
2019-02-15T06:22:47.050Z,70.53
2019-02-15T06:23:47.037Z,70.74
2019-02-15T06:24:49.812Z,70.43
2019-02-15T06:25:47.018Z,69.91
2019-02-15T06:26:47.082Z,69.81
2019-02-15T06:27:46.996Z,70.01
2019-02-15T06:28:46.986Z,69.70
2019-02-15T06:29:48.042Z,69.70
2019-02-15T06:30:46.958Z,69.59
2019-02-15T06:31:47.122Z,69.81
2019-02-15T06:32:46.995Z,69.70
2019-02-15T06:33:46.930Z,69.70
2019-02-15T06:34:46.920Z,69.91
2019-02-15T06:35:46.916Z,69.77
2019-02-15T06:36:49.805Z,69.59
2019-02-15T06:37:46.884Z,69.70
2019-02-15T06:38:46.898Z,69.70
2019-02-15T06:39:46.902Z,69.91
2019-02-15T06:40:46.852Z,69.38
2019-02-15T06:41:46.839Z,69.38
2019-02-15T06:42:47.080Z,69.59
2019-02-15T06:43:46.830Z,69.38
2019-02-15T06:44:46.826Z,69.70
2019-02-15T06:45:46.982Z,69.38
2019-02-15T06:46:47.036Z,69.46
2019-02-15T06:47:47.068Z,69.67
2019-02-15T06:48:46.776Z,69.28
2019-02-15T06:49:46.760Z,69.59
2019-02-15T06:51:45.759Z,69.28
2019-02-15T06:52:49.301Z,69.70
2019-02-15T06:54:45.740Z,69.49
2019-02-15T06:55:46.704Z,69.25
2019-02-15T06:56:49.293Z,69.25
2019-02-15T06:57:46.667Z,69.49
2019-02-15T06:58:46.660Z,70.09
2019-02-15T06:59:46.686Z,69.67
2019-02-15T07:00:46.642Z,69.56
2019-02-15T07:01:49.293Z,69.35
2019-02-15T07:02:46.616Z,69.25
2019-02-15T07:03:46.632Z,69.46
2019-02-15T07:04:46.597Z,69.25
2019-02-15T07:05:49.296Z,69.56
2019-02-15T07:06:46.577Z,68.94
2019-02-15T07:07:46.573Z,69.35
2019-02-15T07:08:46.573Z,69.56
2019-02-15T07:09:46.544Z,69.04
2019-02-15T07:10:46.577Z,69.35
2019-02-15T07:11:46.518Z,69.25
2019-02-15T07:12:46.504Z,69.46
2019-02-15T07:13:46.498Z,69.25
2019-02-15T07:14:46.491Z,69.56
2019-02-15T07:15:46.506Z,69.35
2019-02-15T07:16:46.456Z,69.25
2019-02-15T07:17:46.450Z,69.35
2019-02-15T07:18:46.468Z,69.46
2019-02-15T07:19:46.434Z,69.04
2019-02-15T07:20:46.427Z,68.52
2019-02-15T07:21:46.408Z,68.73
2019-02-15T07:22:46.406Z,68.52
2019-02-15T07:23:46.420Z,69.04
2019-02-15T07:24:47.293Z,69.25
2019-02-15T07:25:49.282Z,69.35
2019-02-15T07:26:45.555Z,69.81
2019-02-15T07:27:46.340Z,69.81
2019-02-15T07:28:45.355Z,69.77
2019-02-15T07:29:46.324Z,69.81
2019-02-15T07:30:46.306Z,69.70
2019-02-15T07:31:46.342Z,70.84
2019-02-15T07:32:46.302Z,70.43
2019-02-15T07:33:46.280Z,70.84
2019-02-15T07:35:45.246Z,69.91
2019-02-15T07:36:47.799Z,70.19
2019-02-15T07:37:46.275Z,69.77
2019-02-15T07:38:46.232Z,69.35
2019-02-15T07:39:46.786Z,69.77
2019-02-15T07:40:46.198Z,69.32
2019-02-15T07:41:46.196Z,69.32
2019-02-15T07:42:46.172Z,69.22
2019-02-15T07:43:46.170Z,69.25
2019-02-15T07:44:46.156Z,69.22
2019-02-15T07:45:46.202Z,69.12
2019-02-15T07:46:46.131Z,68.60
2019-02-15T07:47:46.129Z,68.70
2019-02-15T07:48:46.119Z,68.80
2019-02-15T07:49:46.101Z,68.80
2019-02-15T07:50:46.088Z,68.80
2019-02-15T07:51:46.116Z,68.49
2019-02-15T07:52:46.067Z,68.46
2019-02-15T07:53:46.067Z,68.66
2019-02-15T07:54:46.055Z,68.46
2019-02-15T07:55:46.033Z,68.35
2019-02-15T07:56:46.022Z,68.04
2019-02-15T07:57:46.063Z,68.46
2019-02-15T07:58:46.000Z,67.60
2019-02-15T07:59:45.993Z,68.25
2019-02-15T08:00:45.987Z,68.35
2019-02-15T08:01:45.971Z,68.25
2019-02-15T08:02:45.962Z,68.35
2019-02-15T08:03:45.987Z,68.01
2019-02-15T08:04:45.970Z,68.32
2019-02-15T08:05:45.980Z,67.83
2019-02-15T08:06:45.921Z,68.12
2019-02-15T08:07:45.906Z,68.04
2019-02-15T08:08:45.896Z,68.12
2019-02-15T08:09:45.880Z,68.12
2019-02-15T08:10:45.891Z,68.12
2019-02-15T08:11:45.897Z,68.22
2019-02-15T08:12:45.847Z,67.57
2019-02-15T08:13:45.835Z,67.57
2019-02-15T08:14:45.831Z,67.29
2019-02-15T08:15:51.484Z,67.08
2019-02-15T08:16:45.828Z,67.15
2019-02-15T08:17:45.833Z,67.36
2019-02-15T08:18:45.788Z,67.77
2019-02-15T08:19:45.776Z,67.57
2019-02-15T08:20:45.781Z,67.46
2019-02-15T08:21:45.763Z,67.57
2019-02-15T08:22:45.748Z,68.05
2019-02-15T08:23:45.792Z,67.43
2019-02-15T08:24:45.726Z,67.64
2019-02-15T08:25:45.718Z,67.54
2019-02-15T08:26:45.695Z,66.81
2019-02-15T08:27:45.696Z,67.02
2019-02-15T08:29:44.690Z,67.09
2019-02-15T08:30:45.697Z,66.36
2019-02-15T08:31:45.639Z,66.39
2019-02-15T08:32:45.633Z,66.47
2019-02-15T08:33:45.618Z,66.36
2019-02-15T08:34:45.602Z,65.53
2019-02-15T08:35:45.608Z,66.25
2019-02-15T08:36:45.625Z,65.94
2019-02-15T08:37:45.571Z,65.81
2019-02-15T08:38:45.571Z,66.22
2019-02-15T08:39:45.549Z,66.12
2019-02-15T08:40:45.573Z,65.60
2019-02-15T08:42:00.602Z,65.91
2019-02-15T08:42:45.519Z,65.68
2019-02-15T08:43:46.259Z,66.20
2019-02-15T08:44:45.509Z,65.78
2019-02-15T08:45:45.491Z,65.68
2019-02-15T08:46:45.496Z,65.58
2019-02-15T08:47:45.799Z,64.75
2019-02-15T08:48:46.465Z,64.75
2019-02-15T08:49:45.471Z,64.72
2019-02-15T08:50:45.429Z,64.82
2019-02-15T08:51:48.273Z,64.40
2019-02-15T08:52:45.416Z,64.30
2019-02-15T08:53:45.592Z,64.30
2019-02-15T08:54:48.256Z,64.72
2019-02-15T08:55:45.382Z,64.61
2019-02-15T08:56:45.371Z,64.61
2019-02-15T08:57:45.356Z,64.72
2019-02-15T08:58:45.372Z,64.79
2019-02-15T08:59:45.330Z,64.37
2019-02-15T09:00:45.692Z,64.27
2019-02-15T09:01:45.311Z,64.37
2019-02-15T09:02:45.307Z,64.69
2019-02-15T09:03:45.542Z,64.34
2019-02-15T09:04:47.765Z,63.96
2019-02-15T09:05:45.266Z,64.17
2019-02-15T09:06:45.257Z,64.14
2019-02-15T09:07:45.258Z,63.96
2019-02-15T09:08:45.236Z,64.34
2019-02-15T09:09:45.265Z,63.93
2019-02-15T09:10:45.230Z,63.62
2019-02-15T09:11:45.205Z,62.87
2019-02-15T09:12:45.192Z,63.90
2019-02-15T09:13:45.188Z,63.90
2019-02-15T09:14:45.177Z,62.87
2019-02-15T09:15:45.207Z,63.69
2019-02-15T09:16:45.160Z,63.69
2019-02-15T09:17:45.143Z,63.28
2019-02-15T09:18:45.130Z,63.28
2019-02-15T09:19:45.120Z,63.66
2019-02-15T09:20:45.155Z,62.73
2019-02-15T09:21:45.122Z,62.73
2019-02-15T09:22:45.083Z,62.94
2019-02-15T09:23:45.746Z,63.04
2019-02-15T09:24:45.068Z,62.94
2019-02-15T09:25:45.051Z,62.94
2019-02-15T09:26:45.096Z,62.08
2019-02-15T09:27:45.031Z,61.87
2019-02-15T09:28:45.038Z,61.77
2019-02-15T09:29:45.013Z,61.98
2019-02-15T09:30:45.005Z,61.77
2019-02-15T09:31:44.990Z,61.64
2019-02-15T09:32:45.005Z,62.18
2019-02-15T09:33:44.982Z,62.05
2019-02-15T09:34:44.961Z,61.54
2019-02-15T09:35:44.947Z,61.64
2019-02-15T09:36:44.954Z,61.64
2019-02-15T09:37:44.922Z,62.26
2019-02-15T09:38:44.924Z,61.64
2019-02-15T09:39:44.918Z,61.95
2019-02-15T09:40:44.898Z,61.51
2019-02-15T09:41:44.919Z,61.51
2019-02-15T09:42:44.870Z,60.58
2019-02-15T09:43:44.855Z,60.58
2019-02-15T09:44:44.845Z,60.99
2019-02-15T09:45:44.837Z,60.89
2019-02-15T09:46:44.835Z,60.55
2019-02-15T09:47:44.975Z,60.44
2019-02-15T09:48:44.806Z,60.96
2019-02-15T09:49:46.733Z,60.96
2019-02-15T09:50:44.781Z,60.86
2019-02-15T09:51:45.237Z,59.93
2019-02-15T09:52:44.758Z,60.44
2019-02-15T09:53:44.773Z,60.44
2019-02-15T09:54:44.743Z,60.00
2019-02-15T09:55:44.737Z,60.86
2019-02-15T09:56:44.881Z,60.73
2019-02-15T09:57:44.704Z,60.52
2019-02-15T09:58:44.750Z,59.90
2019-02-15T09:59:44.691Z,60.63
2019-02-15T10:00:44.672Z,60.83
2019-02-15T10:01:45.240Z,60.11
2019-02-15T10:02:44.665Z,60.00
2019-02-15T10:03:44.640Z,59.77
2019-02-15T10:04:43.687Z,59.88
2019-02-15T10:05:44.614Z,59.77
2019-02-15T10:06:44.609Z,60.70
2019-02-15T10:07:44.596Z,59.67
2019-02-15T10:08:44.595Z,59.84
2019-02-15T10:09:44.619Z,59.23
2019-02-15T10:10:44.561Z,59.33
2019-02-15T10:11:44.553Z,59.33
2019-02-15T10:12:44.539Z,59.23
2019-02-15T10:13:44.529Z,58.71
2019-02-15T10:14:44.571Z,59.12
2019-02-15T10:15:44.510Z,58.37
2019-02-15T10:16:44.548Z,58.58
2019-02-15T10:17:44.487Z,58.69
2019-02-15T10:18:44.475Z,58.06
2019-02-15T10:19:44.473Z,58.48
2019-02-15T10:20:44.512Z,57.86
2019-02-15T10:21:44.439Z,57.93
2019-02-15T10:22:44.441Z,57.55
2019-02-15T10:23:44.423Z,57.11
2019-02-15T10:24:44.421Z,58.35
2019-02-15T10:26:43.418Z,57.11
2019-02-15T10:27:44.420Z,57.32
2019-02-15T10:28:44.366Z,57.21
2019-02-15T10:29:44.359Z,56.67
2019-02-15T10:30:44.343Z,56.88
2019-02-15T10:31:44.347Z,56.67
2019-02-15T10:32:44.313Z,56.26
2019-02-15T10:33:44.377Z,56.67
2019-02-15T10:34:44.321Z,56.16
2019-02-15T10:35:44.299Z,56.26
2019-02-15T10:36:44.285Z,56.44
2019-02-15T10:37:44.268Z,55.72
2019-02-15T10:38:44.261Z,55.82
2019-02-15T10:39:44.285Z,55.62
2019-02-15T10:40:44.250Z,55.72
2019-02-15T10:41:44.225Z,55.62
2019-02-15T10:42:44.209Z,55.80
2019-02-15T10:43:44.236Z,55.80
2019-02-15T10:44:44.235Z,55.69
2019-02-15T10:45:44.225Z,55.87
2019-02-15T10:46:44.169Z,55.77
2019-02-15T10:47:44.759Z,54.94
2019-02-15T10:48:44.150Z,54.94
2019-02-15T10:49:44.178Z,54.33
2019-02-15T10:50:44.155Z,54.41
2019-02-15T10:51:44.121Z,54.41
2019-02-15T10:52:44.169Z,55.02
2019-02-15T10:53:44.099Z,54.00
2019-02-15T10:54:44.084Z,53.69
2019-02-15T10:55:44.720Z,54.17
2019-02-15T10:56:44.067Z,53.69
2019-02-15T10:57:44.043Z,54.00
2019-02-15T10:58:44.127Z,54.17
2019-02-15T10:59:44.035Z,54.07
2019-02-15T11:00:44.018Z,53.66
2019-02-15T11:01:44.005Z,54.77
2019-02-15T11:02:43.997Z,54.17
2019-02-15T11:03:43.986Z,53.87
2019-02-15T11:04:44.045Z,54.07
2019-02-15T11:05:43.708Z,53.94
2019-02-15T11:06:43.964Z,53.85
2019-02-15T11:07:43.942Z,53.02
2019-02-15T11:08:44.257Z,52.51
2019-02-15T11:09:43.919Z,52.20
2019-02-15T11:10:46.713Z,51.68
2019-02-15T11:11:43.901Z,52.28
2019-02-15T11:12:43.945Z,51.15
2019-02-15T11:13:43.892Z,51.45
2019-02-15T11:14:43.885Z,50.63
2019-02-15T11:15:43.861Z,50.43
2019-02-15T11:16:47.229Z,50.63
2019-02-15T11:17:43.829Z,50.63
2019-02-15T11:18:43.875Z,50.92
2019-02-15T11:19:43.808Z,50.51
2019-02-15T11:20:43.800Z,50.71
2019-02-15T11:21:43.795Z,50.40
2019-02-15T11:22:43.781Z,50.59
2019-02-15T11:23:43.765Z,50.10
2019-02-15T11:24:43.807Z,50.71
2019-02-15T11:25:43.751Z,50.71
2019-02-15T11:26:43.737Z,50.07
2019-02-15T11:27:43.740Z,50.07
2019-02-15T11:28:43.736Z,50.28
2019-02-15T11:29:43.759Z,49.54
2019-02-15T11:30:43.720Z,49.66
2019-02-15T11:31:43.675Z,49.97
2019-02-15T11:32:43.674Z,49.54
2019-02-15T11:33:43.674Z,49.33
2019-02-15T11:34:43.660Z,49.43
2019-02-15T11:35:43.665Z,49.54
2019-02-15T11:36:44.257Z,49.64
2019-02-15T11:37:43.649Z,49.21
2019-02-15T11:38:43.647Z,48.90
2019-02-15T11:39:43.604Z,49.41
2019-02-15T11:40:43.576Z,49.51
2019-02-15T11:41:43.577Z,48.59
2019-02-15T11:42:43.559Z,49.00
2019-02-15T11:43:43.541Z,48.88
2019-02-15T11:44:43.565Z,47.96
2019-02-15T11:45:43.541Z,48.77
2019-02-15T11:46:43.514Z,47.96
2019-02-15T11:47:46.206Z,48.67
2019-02-15T11:48:43.492Z,49.06
2019-02-15T11:49:43.531Z,48.26
2019-02-15T11:50:43.469Z,47.31
2019-02-15T11:51:43.469Z,47.01
2019-02-15T11:52:43.476Z,46.93
2019-02-15T11:53:43.436Z,47.44
2019-02-15T11:54:43.432Z,47.22
2019-02-15T11:55:43.413Z,46.09
2019-02-15T11:57:42.444Z,47.11
2019-02-15T11:58:43.391Z,46.99
2019-02-15T11:59:43.401Z,47.40
2019-02-15T12:00:43.357Z,47.50
2019-02-15T12:01:43.345Z,47.40
2019-02-15T12:02:43.346Z,47.50
2019-02-15T12:03:43.324Z,46.37
2019-02-15T12:04:43.371Z,46.04
2019-02-15T12:05:43.315Z,46.25
2019-02-15T12:06:43.295Z,46.76
2019-02-15T12:07:43.280Z,45.74
2019-02-15T12:08:43.284Z,46.56
2019-02-15T12:09:43.260Z,46.35
2019-02-15T12:10:43.303Z,46.76
2019-02-15T12:11:43.237Z,46.53
2019-02-15T12:12:43.229Z,46.33
2019-02-15T12:13:43.222Z,46.33
2019-02-15T12:14:43.222Z,46.74
2019-02-15T12:15:43.200Z,45.61
2019-02-15T12:16:43.224Z,44.78
2019-02-15T12:17:43.177Z,44.88
2019-02-15T12:18:43.163Z,45.41
2019-02-15T12:19:43.223Z,44.88
2019-02-15T12:20:43.148Z,45.78
2019-02-15T12:21:43.142Z,44.76
2019-02-15T12:22:43.148Z,44.55
2019-02-15T12:23:43.101Z,44.55
2019-02-15T12:24:43.099Z,43.94
2019-02-15T12:25:43.145Z,44.04
2019-02-15T12:26:43.083Z,44.04
2019-02-15T12:27:43.072Z,44.02
2019-02-15T12:28:43.054Z,44.02
2019-02-15T12:29:43.032Z,43.71
2019-02-15T12:30:43.068Z,44.02
2019-02-15T12:31:43.026Z,44.43
2019-02-15T12:32:43.012Z,43.49
2019-02-15T12:33:42.998Z,43.49
2019-02-15T12:34:42.986Z,43.90
2019-02-15T12:35:43.011Z,43.49
2019-02-15T12:36:42.978Z,43.29
2019-02-15T12:37:42.959Z,44.00
2019-02-15T12:38:42.988Z,42.47
2019-02-15T12:39:42.937Z,42.97
2019-02-15T12:40:42.934Z,42.65
2019-02-15T12:41:42.910Z,42.55
2019-02-15T12:42:42.909Z,43.67
2019-02-15T12:43:45.693Z,43.26
2019-02-15T12:44:42.875Z,42.14
2019-02-15T12:45:43.694Z,42.65
2019-02-15T12:46:42.853Z,42.14
2019-02-15T12:47:42.847Z,42.04
2019-02-15T12:48:42.846Z,42.22
2019-02-15T12:49:42.822Z,42.33
2019-02-15T12:50:42.815Z,42.22
2019-02-15T12:51:42.900Z,42.33
2019-02-15T12:52:42.785Z,42.02
2019-02-15T12:53:45.687Z,42.43
2019-02-15T12:54:43.699Z,42.12
2019-02-15T12:55:41.828Z,42.51
2019-02-15T12:56:42.749Z,41.49
2019-02-15T12:57:42.749Z,42.00
2019-02-15T12:58:42.722Z,40.57
2019-02-15T12:59:42.723Z,40.67
2019-02-15T13:00:42.740Z,40.67
2019-02-15T13:01:42.695Z,40.98
2019-02-15T13:03:04.190Z,40.66
2019-02-15T13:03:44.236Z,40.35
2019-02-15T13:04:42.653Z,40.35
2019-02-15T13:05:41.956Z,40.45
2019-02-15T13:06:43.156Z,40.25